Time;durP1;ratioP1;P1;durP2;ratioP2;P2;SDS_P1;SDS_P2;PMS_P1;PMS_P2;Temp;Humidity;BMP_temperature;BMP_pressure;BME280_temperature;BME280_humidity;BME280_pressure;Samples;Min_cycle;Max_cycle;Signal;HPM_P1;HPM_P2
2022/05/09 00:00:18;;;;;;;1.35;0.88;;;3.10;99.90;;;;;;5001144;28;20224;-80
2022/05/09 00:02:48;;;;;;;3.22;1.23;;;3.10;99.90;;;;;;5000497;28;20634;-80
2022/05/09 00:05:17;;;;;;;5.53;2.05;;;3.10;99.90;;;;;;4983426;28;20173;-80
2022/05/09 00:07:45;;;;;;;7.05;2.28;;;3.10;99.90;;;;;;4984399;28;20510;-80
2022/05/09 00:10:13;;;;;;;3.85;2.08;;;3.10;99.90;;;;;;4986410;28;20069;-80
2022/05/09 00:12:40;;;;;;;4.60;1.77;;;3.10;99.90;;;;;;5002940;28;20073;-80
2022/05/09 00:15:08;;;;;;;2.10;0.95;;;3.10;99.90;;;;;;5003153;28;20144;-80
2022/05/09 00:17:35;;;;;;;4.30;1.25;;;3.00;99.90;;;;;;4998465;28;20170;-80
2022/05/09 00:20:03;;;;;;;4.20;2.17;;;3.00;99.90;;;;;;4984442;28;20502;-80
2022/05/09 00:22:41;;;;;;;3.13;1.17;;;3.00;99.90;;;;;;5004322;28;20658;-80
2022/05/09 00:25:08;;;;;;;6.30;1.27;;;3.00;99.90;;;;;;5001845;28;20050;-80
2022/05/09 00:27:35;;;;;;;2.47;1.40;;;3.00;99.90;;;;;;5000299;28;20121;-80
2022/05/09 00:30:02;;;;;;;3.28;1.63;;;3.00;99.90;;;;;;4984713;28;20482;-80
2022/05/09 00:32:29;;;;;;;2.33;1.25;;;3.00;99.90;;;;;;4983631;28;20107;-80
2022/05/09 00:35:03;;;;;;;13.05;1.50;;;3.10;99.90;;;;;;5003524;28;20080;-80
2022/05/09 00:37:29;;;;;;;2.90;1.00;;;3.00;99.90;;;;;;5001023;28;20053;-80
2022/05/09 00:39:56;;;;;;;3.15;0.95;;;3.00;99.90;;;;;;4961597;28;20104;-80
2022/05/09 00:42:23;;;;;;;1.92;1.60;;;3.00;99.90;;;;;;5002676;28;20050;-80
2022/05/09 00:44:50;;;;;;;2.53;1.10;;;2.90;99.90;;;;;;4998763;28;20407;-80
2022/05/09 00:47:20;;;;;;;4.47;0.98;;;2.90;99.90;;;;;;5000716;28;20111;-80
2022/05/09 00:49:54;;;;;;;1.85;1.02;;;2.90;99.90;;;;;;5002141;28;20046;-80
2022/05/09 00:52:32;;;;;;;3.22;0.98;;;2.90;99.90;;;;;;4985515;28;20542;-80
2022/05/09 00:55:09;;;;;;;5.50;1.23;;;2.90;99.90;;;;;;5003308;28;20151;-80
2022/05/09 00:57:52;;;;;;;2.60;1.50;;;2.90;99.90;;;;;;4983249;28;20053;-80
2022/05/09 01:00:22;;;;;;;5.03;1.17;;;2.90;99.90;;;;;;4996811;28;20058;-80
2022/05/09 01:02:59;;;;;;;3.15;1.40;;;2.80;99.90;;;;;;4984479;28;20143;-80
2022/05/09 01:05:28;;;;;;;3.03;0.90;;;2.80;99.90;;;;;;4994423;28;20049;-80
2022/05/09 01:07:56;;;;;;;2.97;1.13;;;2.80;99.90;;;;;;5003422;28;20104;-80
2022/05/09 01:10:30;;;;;;;1.60;0.90;;;2.80;99.90;;;;;;5002740;28;20463;-80
2022/05/09 01:13:02;;;;;;;5.85;1.50;;;2.80;99.90;;;;;;4960699;28;20101;-80
2022/05/09 01:15:30;;;;;;;3.53;1.02;;;2.70;99.90;;;;;;4980052;28;20050;-80
2022/05/09 01:18:00;;;;;;;3.72;0.90;;;2.70;99.90;;;;;;4984263;28;20526;-80
2022/05/09 01:20:27;;;;;;;5.55;1.48;;;2.70;99.90;;;;;;4985341;28;20115;-80
2022/05/09 01:22:58;;;;;;;1.38;0.75;;;2.70;99.90;;;;;;5002392;28;20596;-80
2022/05/09 01:25:27;;;;;;;2.40;1.02;;;2.70;99.90;;;;;;4976123;28;20062;-80
2022/05/09 01:27:56;;;;;;;;;;;2.70;99.90;;;;;;4996059;28;20420;-80
2022/05/09 01:30:28;;;;;;;1.60;1.23;;;2.70;99.90;;;;;;5002483;28;19939;-80
2022/05/09 01:33:03;;;;;;;2.47;1.17;;;2.70;99.90;;;;;;4984719;28;20410;-80
2022/05/09 01:35:45;;;;;;;3.05;1.00;;;2.70;99.90;;;;;;4997037;28;20113;-80
2022/05/09 01:38:24;;;;;;;3.83;0.90;;;2.70;99.90;;;;;;4982934;28;20042;-80
2022/05/09 01:40:51;;;;;;;8.00;1.23;;;2.70;99.90;;;;;;4972902;28;20566;-80
2022/05/09 01:43:33;;;;;;;1.70;0.68;;;2.70;99.90;;;;;;4982547;28;20069;-80
2022/05/09 01:46:15;;;;;;;3.70;1.70;;;2.70;99.90;;;;;;5001207;28;20046;-80
2022/05/09 01:51:29;;;;;;;5.03;0.93;;;2.80;99.90;;;;;;4981881;28;20553;-80
2022/05/09 01:53:58;;;;;;;10.30;1.17;;;2.70;99.90;;;;;;5002169;28;20083;-80
2022/05/09 01:56:29;;;;;;;1.42;0.77;;;2.80;99.90;;;;;;4982769;28;20112;-80
2022/05/09 01:58:56;;;;;;;6.00;1.88;;;2.80;99.90;;;;;;5002206;28;20165;-80
2022/05/09 02:01:27;;;;;;;1.45;0.70;;;2.80;99.90;;;;;;4967014;28;20115;-80
2022/05/09 02:03:54;;;;;;;;;;;2.80;99.90;;;;;;5001478;28;20049;-81
2022/05/09 02:06:21;;;;;;;1.70;0.80;;;2.90;99.90;;;;;;4993883;28;20290;-81
2022/05/09 02:08:49;;;;;;;4.20;1.38;;;2.90;99.90;;;;;;4999164;28;20089;-81
2022/05/09 02:11:16;;;;;;;3.00;1.13;;;3.00;99.90;;;;;;4981172;28;20136;-81
2022/05/09 02:13:44;;;;;;;1.48;1.00;;;2.90;99.90;;;;;;4998854;28;20053;-81
2022/05/09 02:16:11;;;;;;;5.25;0.85;;;2.90;99.90;;;;;;5000470;28;20137;-81
2022/05/09 02:18:39;;;;;;;3.58;1.20;;;2.90;99.90;;;;;;4982835;28;20077;-81
2022/05/09 02:21:06;;;;;;;5.35;1.05;;;2.90;99.90;;;;;;4983280;28;20450;-82
2022/05/09 02:23:33;;;;;;;1.98;1.10;;;2.90;99.90;;;;;;4999037;28;20527;-81
2022/05/09 02:26:01;;;;;;;1.67;1.23;;;2.90;99.90;;;;;;4998886;28;20065;-81
2022/05/09 02:28:28;;;;;;;2.72;1.48;;;2.90;99.90;;;;;;4981905;28;20136;-81
2022/05/09 02:30:55;;;;;;;1.55;0.80;;;2.90;99.90;;;;;;5009184;28;20136;-81
2022/05/09 02:33:23;;;;;;;3.63;1.25;;;2.90;99.90;;;;;;4998896;28;20542;-81
2022/05/09 02:35:50;;;;;;;1.70;1.10;;;2.90;99.90;;;;;;5001387;28;20056;-81
2022/05/09 02:38:17;;;;;;;2.45;1.38;;;2.90;99.90;;;;;;4964530;28;20058;-81
2022/05/09 02:40:44;;;;;;;3.17;1.08;;;2.90;99.90;;;;;;4980722;28;20485;-81
2022/05/09 02:43:11;;;;;;;4.75;1.85;;;2.90;99.90;;;;;;4999124;28;20073;-81
2022/05/09 02:45:39;;;;;;;1.83;0.90;;;2.90;99.90;;;;;;4980101;28;20286;-81
2022/05/09 02:48:06;;;;;;;4.03;1.05;;;2.90;99.90;;;;;;5000265;28;20509;-81
2022/05/09 02:50:33;;;;;;;1.75;0.98;;;3.00;99.90;;;;;;4983385;28;20822;-81
2022/05/09 02:53:00;;;;;;;2.33;1.15;;;2.90;99.90;;;;;;4980578;28;20077;-81
2022/05/09 02:55:27;;;;;;;2.10;0.90;;;2.90;99.90;;;;;;4981571;28;20470;-81
2022/05/09 02:57:54;;;;;;;1.95;1.13;;;3.00;99.90;;;;;;4971369;28;20532;-81
2022/05/09 03:00:25;;;;;;;2.03;0.85;;;3.00;99.90;;;;;;5001115;28;20077;-81
2022/05/09 03:05:41;;;;;;;4.63;1.17;;;3.00;99.90;;;;;;4995497;28;20046;-82
2022/05/09 03:08:11;;;;;;;2.88;1.17;;;3.20;99.90;;;;;;5000231;28;20045;-82
2022/05/09 03:10:38;;;;;;;2.17;1.25;;;3.20;99.90;;;;;;5005349;28;20899;-81
2022/05/09 03:13:08;;;;;;;1.40;0.90;;;3.30;99.90;;;;;;5000187;28;20076;-81
2022/05/09 03:15:40;;;;;;;1.85;1.70;;;3.30;99.90;;;;;;4982972;28;20493;-81
2022/05/09 03:18:08;;;;;;;6.63;1.27;;;3.40;99.90;;;;;;4982173;28;20050;-81
2022/05/09 03:20:36;;;;;;;5.97;1.25;;;3.40;99.90;;;;;;5000421;28;20069;-81
2022/05/09 03:23:05;;;;;;;4.13;1.15;;;3.50;99.90;;;;;;4983094;28;20053;-81
2022/05/09 03:25:33;;;;;;;4.15;1.10;;;3.60;99.90;;;;;;4998834;28;20041;-81
2022/05/09 03:28:00;;;;;;;0.98;0.40;;;3.60;99.90;;;;;;4981661;28;20391;-81
2022/05/09 03:30:28;;;;;;;1.95;1.20;;;3.60;99.90;;;;;;4956203;28;20046;-81
2022/05/09 03:32:55;;;;;;;2.40;1.00;;;3.70;99.90;;;;;;4996939;28;20053;-81
2022/05/09 03:35:22;;;;;;;4.50;1.27;;;3.70;99.90;;;;;;4985210;28;20132;-82
2022/05/09 03:37:49;;;;;;;1.60;1.05;;;3.70;99.90;;;;;;4983086;28;20042;-81
2022/05/09 03:40:18;;;;;;;2.40;0.95;;;3.80;99.90;;;;;;5003212;28;20050;-81
2022/05/09 03:42:45;;;;;;;2.40;0.80;;;3.80;99.90;;;;;;5002972;28;20711;-81
2022/05/09 03:45:12;;;;;;;3.55;1.02;;;3.90;99.90;;;;;;5004058;28;20728;-81
2022/05/09 03:47:40;;;;;;;5.72;1.20;;;3.90;99.90;;;;;;5001274;28;20058;-81
2022/05/09 03:50:13;;;;;;;1.67;0.85;;;4.00;99.90;;;;;;4985284;28;20131;-81
2022/05/09 03:52:43;;;;;;;2.92;1.05;;;4.10;99.90;;;;;;5004387;28;20074;-81
2022/05/09 03:55:12;;;;;;;1.35;1.20;;;4.10;99.90;;;;;;5004146;28;20045;-81
2022/05/09 03:57:48;;;;;;;3.53;1.25;;;4.10;99.90;;;;;;5002172;28;20049;-81
2022/05/09 04:00:18;;;;;;;6.43;3.30;;;4.20;99.90;;;;;;5004113;28;20042;-82
2022/05/09 04:02:45;;;;;;;3.60;2.00;;;4.30;99.90;;;;;;5006928;28;20043;-82
2022/05/09 04:05:17;;;;;;;1.90;1.63;;;4.30;99.90;;;;;;4985347;28;20050;-81
2022/05/09 04:07:47;;;;;;;1.33;0.90;;;4.40;99.90;;;;;;5002328;28;20387;-82
2022/05/09 04:10:17;;;;;;;2.53;1.15;;;4.50;99.90;;;;;;4986286;28;20140;-81
2022/05/09 04:12:44;;;;;;;6.05;1.65;;;4.60;99.90;;;;;;4983975;28;20037;-81
2022/05/09 04:17:57;;;;;;;3.75;2.00;;;4.90;99.90;;;;;;4983751;28;20056;-81
2022/05/09 04:20:25;;;;;;;2.40;1.13;;;5.00;99.90;;;;;;4986484;28;20056;-81
2022/05/09 04:22:53;;;;;;;2.50;1.77;;;5.00;99.90;;;;;;5003769;28;20128;-82
2022/05/09 04:25:21;;;;;;;2.40;1.10;;;5.10;99.90;;;;;;5001853;28;20068;-81
2022/05/09 04:27:50;;;;;;;3.85;1.30;;;5.20;99.90;;;;;;5003406;28;20045;-81
2022/05/09 04:30:18;;;;;;;6.93;1.25;;;5.30;99.90;;;;;;4998106;28;20186;-81
2022/05/09 04:32:45;;;;;;;8.07;1.45;;;5.40;99.90;;;;;;4986178;28;20061;-80
2022/05/09 04:35:20;;;;;;;2.67;1.23;;;5.60;99.90;;;;;;4982635;28;20546;-80
2022/05/09 04:37:53;;;;;;;5.00;1.58;;;5.70;99.90;;;;;;4968381;28;20049;-80
2022/05/09 04:40:24;;;;;;;1.08;0.75;;;5.80;99.90;;;;;;4969798;28;20045;-80
2022/05/09 04:42:52;;;;;;;4.25;0.75;;;5.80;99.90;;;;;;4985206;28;20108;-80
2022/05/09 04:45:19;;;;;;;4.18;1.60;;;5.90;99.90;;;;;;4983704;28;20445;-81
2022/05/09 04:47:46;;;;;;;4.88;1.63;;;5.90;99.90;;;;;;4989428;28;20049;-80
2022/05/09 04:50:15;;;;;;;5.40;1.40;;;6.00;99.90;;;;;;5002371;28;20069;-81
2022/05/09 04:52:42;;;;;;;2.70;0.60;;;6.10;99.90;;;;;;5001475;28;20081;-81
2022/05/09 04:55:09;;;;;;;2.53;1.10;;;6.20;99.90;;;;;;4967937;28;20124;-81
2022/05/09 04:57:36;;;;;;;2.33;1.02;;;6.20;99.90;;;;;;4983786;28;20057;-80
2022/05/09 05:00:07;;;;;;;4.55;1.73;;;6.20;99.90;;;;;;5000417;28;20177;-80
2022/05/09 05:02:34;;;;;;;7.45;1.55;;;6.30;99.90;;;;;;4996699;28;20208;-80
2022/05/09 05:05:02;;;;;;;6.72;1.70;;;6.40;99.90;;;;;;4985214;28;20054;-80
2022/05/09 05:07:29;;;;;;;4.38;1.40;;;6.40;99.90;;;;;;5002034;28;20105;-80
2022/05/09 05:09:57;;;;;;;5.15;1.25;;;6.50;99.90;;;;;;4985511;28;20352;-81
2022/05/09 05:12:24;;;;;;;3.80;1.40;;;6.50;99.90;;;;;;5002394;28;20601;-81
2022/05/09 05:14:51;;;;;;;1.25;0.52;;;6.60;99.90;;;;;;4968255;28;20069;-81
2022/05/09 05:17:18;;;;;;;3.38;1.08;;;6.70;99.90;;;;;;5002414;28;20152;-81
2022/05/09 05:19:45;;;;;;;7.60;1.75;;;6.70;99.90;;;;;;5001618;28;20050;-81
2022/05/09 05:22:15;;;;;;;3.60;0.85;;;6.80;99.90;;;;;;4985516;28;20157;-81
2022/05/09 05:24:44;;;;;;;3.22;1.02;;;6.90;99.90;;;;;;5002404;28;20149;-81
2022/05/09 05:27:13;;;;;;;2.50;1.15;;;7.00;99.90;;;;;;4992051;28;20165;-81
2022/05/09 05:29:41;;;;;;;1.48;1.13;;;7.10;99.90;;;;;;4994670;28;20152;-81
2022/05/09 05:32:21;;;;;;;2.45;0.82;;;7.20;99.90;;;;;;5001544;28;20053;-80
2022/05/09 05:34:49;;;;;;;8.70;1.40;;;7.30;99.90;;;;;;4984220;28;20077;-81
2022/05/09 05:37:17;;;;;;;3.38;0.88;;;7.40;99.90;;;;;;5001927;28;20572;-81
2022/05/09 05:39:47;;;;;;;0.85;0.85;;;7.50;99.90;;;;;;4983306;28;20145;-81
2022/05/09 05:42:16;;;;;;;;;;;7.60;99.90;;;;;;4984020;28;20093;-81
2022/05/09 05:44:45;;;;;;;2.15;0.75;;;7.70;99.90;;;;;;4988350;28;19956;-81
2022/05/09 05:47:14;;;;;;;1.90;1.70;;;7.70;99.90;;;;;;4985896;28;20053;-81
2022/05/09 05:49:42;;;;;;;1.98;1.25;;;7.70;99.90;;;;;;4998261;28;20054;-81
2022/05/09 05:52:11;;;;;;;4.40;1.15;;;7.70;99.90;;;;;;5001384;28;20038;-81
2022/05/09 05:54:40;;;;;;;1.50;0.93;;;7.80;99.90;;;;;;4982384;28;20064;-81
2022/05/09 05:57:28;;;;;;;1.17;1.05;;;7.80;99.90;;;;;;5001276;28;20231;-81
2022/05/09 05:59:57;;;;;;;1.80;0.43;;;7.90;99.90;;;;;;4999822;28;20073;-81
2022/05/09 06:02:26;;;;;;;1.95;1.58;;;8.00;99.90;;;;;;4997668;28;20061;-81
2022/05/09 06:04:54;;;;;;;5.53;1.30;;;7.90;99.90;;;;;;4983904;28;20105;-80
2022/05/09 06:07:22;;;;;;;3.75;2.15;;;7.90;99.90;;;;;;4977531;28;20077;-81
2022/05/09 06:09:52;;;;;;;4.03;0.77;;;7.90;99.90;;;;;;4982636;28;20053;-83
2022/05/09 06:12:21;;;;;;;1.45;0.40;;;8.00;99.90;;;;;;5001467;28;20058;-81
2022/05/09 06:15:24;;;;;;;3.28;0.75;;;8.20;99.90;;;;;;5000468;28;20052;-81
2022/05/09 06:17:38;;;;;;;1.75;0.82;;;8.40;99.90;;;;;;4977661;28;20069;-81
2022/05/09 06:20:08;;;;;;;0.90;0.60;;;8.50;99.90;;;;;;5006119;28;20046;-81
2022/05/09 06:22:38;;;;;;;1.40;0.60;;;8.60;99.90;;;;;;4982196;28;20053;-82
2022/05/09 06:25:09;;;;;;;2.92;0.88;;;8.80;99.90;;;;;;5001049;28;20050;-82
2022/05/09 06:27:37;;;;;;;1.80;0.90;;;8.80;99.90;;;;;;4999539;28;20491;-82
2022/05/09 06:30:07;;;;;;;5.28;0.77;;;8.90;99.90;;;;;;4983102;28;20704;-82
2022/05/09 06:32:35;;;;;;;2.63;1.23;;;8.80;99.90;;;;;;4977544;28;20096;-82
2022/05/09 06:35:05;;;;;;;4.65;0.65;;;8.70;99.90;;;;;;5000210;28;20558;-81
2022/05/09 06:37:36;;;;;;;3.38;0.80;;;8.70;99.90;;;;;;4978617;28;20104;-81
2022/05/09 06:40:05;;;;;;;4.78;0.80;;;8.80;99.90;;;;;;4980341;28;20573;-81
2022/05/09 06:42:33;;;;;;;4.10;0.40;;;8.90;99.90;;;;;;5003615;28;20312;-81
2022/05/09 06:44:59;;;;;;;4.00;0.85;;;8.90;99.90;;;;;;5000800;28;20483;-82
2022/05/09 06:47:27;;;;;;;1.45;0.68;;;9.00;99.90;;;;;;4980485;28;20093;-81
2022/05/09 06:50:01;;;;;;;1.38;1.02;;;9.00;99.90;;;;;;4993185;28;20082;-81
2022/05/09 06:52:29;;;;;;;1.35;0.80;;;9.10;99.90;;;;;;4982941;28;20104;-82
2022/05/09 06:54:55;;;;;;;0.95;0.50;;;9.20;99.90;;;;;;4980676;28;20046;-81
2022/05/09 06:57:22;;;;;;;2.60;0.73;;;9.20;99.90;;;;;;5001247;28;20096;-81
2022/05/09 06:59:49;;;;;;;1.48;0.55;;;9.20;99.50;;;;;;5001995;28;20432;-81
2022/05/09 07:02:16;;;;;;;2.20;0.55;;;9.30;99.90;;;;;;4982734;28;20078;-81
2022/05/09 07:04:43;;;;;;;3.28;0.40;;;9.40;99.10;;;;;;4994074;28;20061;-81
2022/05/09 07:07:10;;;;;;;2.72;0.55;;;9.40;99.60;;;;;;4967920;28;20435;-81
2022/05/09 07:09:37;;;;;;;2.92;0.73;;;9.40;99.90;;;;;;4991550;28;20415;-81
2022/05/09 07:12:06;;;;;;;2.53;0.60;;;9.50;99.90;;;;;;4989526;28;20046;-81
2022/05/09 07:14:33;;;;;;;3.25;1.00;;;9.50;99.90;;;;;;4990983;28;20125;-80
2022/05/09 07:17:00;;;;;;;0.70;0.40;;;9.60;99.70;;;;;;4996725;28;20049;-81
2022/05/09 07:19:27;;;;;;;2.10;0.50;;;9.70;99.90;;;;;;5001116;28;20056;-80
2022/05/09 07:21:54;;;;;;;1.10;0.47;;;9.80;97.10;;;;;;4985151;28;20066;-81
2022/05/09 07:24:21;;;;;;;3.97;1.15;;;9.80;96.70;;;;;;4982734;28;20142;-81
2022/05/09 07:26:48;;;;;;;4.28;0.68;;;9.90;97.10;;;;;;5001866;28;20053;-82
2022/05/09 07:29:16;;;;;;;1.90;0.63;;;10.00;97.40;;;;;;4991620;28;20145;-82
2022/05/09 07:31:42;;;;;;;1.75;0.45;;;10.00;95.40;;;;;;4976949;28;20116;-81
2022/05/09 07:34:10;;;;;;;1.83;0.75;;;9.90;96.70;;;;;;4990519;28;20054;-82
2022/05/09 07:36:36;;;;;;;3.22;0.52;;;9.90;97.60;;;;;;4980970;28;20076;-83
2022/05/09 07:39:04;;;;;;;1.25;0.40;;;10.10;96.30;;;;;;4998573;28;20056;-82
2022/05/09 07:41:31;;;;;;;2.38;0.40;;;10.10;95.20;;;;;;4997081;28;20838;-83
2022/05/09 07:43:59;;;;;;;0.95;0.45;;;10.10;95.60;;;;;;4983299;28;20061;-82
2022/05/09 07:46:26;;;;;;;1.77;0.52;;;10.20;95.40;;;;;;4981528;28;20145;-81
2022/05/09 07:49:11;;;;;;;0.52;0.40;;;10.20;95.00;;;;;;4980663;28;20056;-82
2022/05/09 07:51:38;;;;;;;4.38;0.60;;;10.10;94.30;;;;;;4997957;28;20046;-82
2022/05/09 07:54:06;;;;;;;3.38;1.13;;;10.20;95.00;;;;;;4981044;28;20137;-81
2022/05/09 07:56:40;;;;;;;0.40;0.30;;;10.40;93.60;;;;;;4989468;28;20117;-82
2022/05/09 07:59:07;;;;;;;3.00;0.82;;;10.40;92.70;;;;;;4997964;28;20052;-82
2022/05/09 08:01:34;;;;;;;2.05;0.52;;;10.40;93.90;;;;;;4979780;28;20046;-82
2022/05/09 08:04:05;;;;;;;0.90;0.40;;;10.40;94.00;;;;;;4996993;28;20123;-82
2022/05/09 08:06:33;;;;;;;1.42;0.57;;;10.40;94.70;;;;;;4994951;28;20070;-82
2022/05/09 08:09:01;;;;;;;1.40;0.60;;;10.50;94.20;;;;;;4998672;28;20131;-82
2022/05/09 08:11:29;;;;;;;4.10;1.77;;;10.70;93.80;;;;;;4997294;28;20068;-81
2022/05/09 08:13:56;;;;;;;2.08;0.47;;;10.80;92.50;;;;;;4981235;28;20861;-82
2022/05/09 08:16:26;;;;;;;2.20;0.82;;;10.90;92.60;;;;;;4998722;28;20514;-81
2022/05/09 08:18:53;;;;;;;;;;;10.90;91.70;;;;;;4965722;28;20045;-82
2022/05/09 08:21:21;;;;;;;2.00;0.50;;;11.00;91.80;;;;;;4998015;28;20052;-82
2022/05/09 08:23:49;;;;;;;1.98;0.60;;;11.00;91.50;;;;;;4982150;28;20100;-82
2022/05/09 08:26:18;;;;;;;2.25;0.65;;;11.10;91.30;;;;;;5000891;28;20069;-82
2022/05/09 08:28:45;;;;;;;5.38;0.70;;;11.10;91.30;;;;;;5002006;28;20568;-82
2022/05/09 08:31:16;;;;;;;1.05;0.52;;;11.30;90.50;;;;;;5000290;28;20045;-81
2022/05/09 08:33:49;;;;;;;3.22;1.05;;;11.30;90.30;;;;;;4982603;28;20065;-82
2022/05/09 08:39:04;;;;;;;1.42;0.50;;;11.30;88.50;;;;;;4985936;28;20050;-82
2022/05/09 08:41:45;;;;;;;0.65;0.30;;;11.20;86.60;;;;;;5002759;28;20127;-82
2022/05/09 08:44:31;;;;;;;;;;;11.10;86.60;;;;;;4996118;28;20050;-82
2022/05/09 08:47:35;;;;;;;4.95;0.70;;;11.10;86.60;;;;;;5002692;28;20006;-81
2022/05/09 08:50:17;;;;;;;2.67;0.47;;;11.10;86.70;;;;;;5002116;28;20594;-82
2022/05/09 08:52:59;;;;;;;3.78;0.60;;;11.10;86.80;;;;;;4984662;28;20046;-82
2022/05/09 08:55:35;;;;;;;0.73;0.30;;;11.10;85.70;;;;;;4976406;28;20119;-82
2022/05/09 08:58:16;;;;;;;2.40;1.08;;;11.10;86.10;;;;;;4999929;28;20782;-82
2022/05/09 09:00:43;;;;;;;2.75;0.70;;;11.10;85.80;;;;;;5003882;28;20562;-82
2022/05/09 09:03:29;;;;;;;2.28;0.82;;;11.10;86.70;;;;;;4979955;28;20054;-81
2022/05/09 09:06:07;;;;;;;4.90;0.80;;;11.30;85.70;;;;;;4983938;28;20050;-83
2022/05/09 09:09:03;;;;;;;7.32;1.15;;;11.40;84.70;;;;;;4996065;28;20045;-82
2022/05/09 09:11:58;;;;;;;2.33;0.68;;;11.40;85.00;;;;;;4999130;28;20077;-82
2022/05/09 09:14:45;;;;;;;1.70;0.70;;;11.50;85.20;;;;;;4991807;28;20058;-81
2022/05/09 09:17:43;;;;;;;1.35;0.68;;;11.60;87.30;;;;;;4982615;28;20164;-82
2022/05/09 09:20:25;;;;;;;2.97;1.02;;;11.90;84.00;;;;;;4998948;28;20057;-82
2022/05/09 09:22:58;;;;;;;1.83;0.63;;;12.00;83.90;;;;;;5002429;28;20227;-83
2022/05/09 09:25:28;;;;;;;0.50;0.47;;;12.10;83.30;;;;;;4995980;28;20053;-82
2022/05/09 09:28:16;;;;;;;1.75;0.63;;;12.00;82.60;;;;;;4983933;28;20118;-82
2022/05/09 09:30:46;;;;;;;1.30;0.50;;;12.10;83.60;;;;;;4998289;28;20050;-82
2022/05/09 09:33:16;;;;;;;2.08;0.65;;;12.20;82.50;;;;;;5001887;28;20045;-82
2022/05/09 09:36:02;;;;;;;3.13;0.82;;;12.30;79.70;;;;;;4999258;28;20045;-82
2022/05/09 09:38:54;;;;;;;0.93;0.43;;;12.40;79.90;;;;;;4998768;28;20042;-82
2022/05/09 09:41:26;;;;;;;2.15;0.60;;;12.60;77.30;;;;;;4998746;28;20080;-82
2022/05/09 09:44:08;;;;;;;4.90;0.80;;;12.40;77.60;;;;;;5001832;28;20108;-82
2022/05/09 09:47:06;;;;;;;0.30;0.30;;;12.40;79.20;;;;;;4979054;28;20064;-83
2022/05/09 09:49:42;;;;;;;3.25;0.70;;;12.40;77.80;;;;;;4989588;28;20064;-82
2022/05/09 09:52:25;;;;;;;1.75;0.60;;;12.50;77.50;;;;;;5002113;28;20745;-83
2022/05/09 09:55:09;;;;;;;3.33;0.50;;;12.60;76.40;;;;;;4995403;28;20046;-82
2022/05/09 09:57:37;;;;;;;0.60;0.50;;;12.60;77.10;;;;;;4998673;28;20407;-82
2022/05/09 10:00:21;;;;;;;4.78;1.92;;;12.90;76.60;;;;;;5001209;28;20157;-83
2022/05/09 10:02:49;;;;;;;3.92;0.60;;;12.90;75.00;;;;;;5000480;28;20054;-82
2022/05/09 10:05:20;;;;;;;2.70;0.60;;;12.80;74.90;;;;;;4983529;28;20050;-83
2022/05/09 10:07:47;;;;;;;1.92;0.47;;;12.90;75.90;;;;;;5005982;28;20050;-82
2022/05/09 10:10:21;;;;;;;1.65;0.65;;;12.90;73.10;;;;;;5000214;28;20561;-82
2022/05/09 10:12:59;;;;;;;5.82;1.25;;;12.90;73.50;;;;;;4983946;28;20527;-82
2022/05/09 10:15:35;;;;;;;1.73;0.70;;;13.00;72.70;;;;;;4998995;28;20049;-82
2022/05/09 10:18:23;;;;;;;2.75;0.75;;;12.90;73.80;;;;;;5000582;28;20050;-82
2022/05/09 10:27:26;;;;;;;1.40;0.60;;;13.20;74.20;;;;;;4986866;28;20057;-82
2022/05/09 10:30:00;;;;;;;2.25;0.73;;;13.10;73.50;;;;;;4990043;28;20286;-82
2022/05/09 10:32:51;;;;;;;1.27;0.52;;;13.20;72.00;;;;;;4999480;28;20073;-82
2022/05/09 10:35:29;;;;;;;4.28;0.50;;;13.30;73.60;;;;;;5000687;28;20254;-82
2022/05/09 10:38:05;;;;;;;1.08;0.75;;;13.50;72.30;;;;;;4998957;28;20049;-82
2022/05/09 10:40:50;;;;;;;2.25;0.60;;;13.70;73.20;;;;;;5000460;28;20076;-82
2022/05/09 10:43:37;;;;;;;1.33;0.93;;;13.50;73.40;;;;;;4981370;28;20073;-82
2022/05/09 10:46:11;;;;;;;3.40;0.40;;;13.70;70.90;;;;;;4992969;28;20049;-82
2022/05/09 10:49:01;;;;;;;3.17;0.77;;;13.80;70.40;;;;;;4982194;28;20053;-82
2022/05/09 10:51:40;;;;;;;3.30;0.70;;;13.60;70.20;;;;;;5000089;28;20101;-82
2022/05/09 10:54:36;;;;;;;1.40;0.85;;;13.60;70.00;;;;;;5000778;28;20360;-82
2022/05/09 10:57:10;;;;;;;1.60;0.68;;;13.50;71.10;;;;;;4999685;28;20061;-81
2022/05/09 11:00:07;;;;;;;1.23;0.70;;;13.60;70.50;;;;;;4999234;28;20046;-82
2022/05/09 11:02:38;;;;;;;8.07;1.73;;;13.70;68.50;;;;;;4998242;28;20046;-82
2022/05/09 11:05:07;;;;;;;0.93;0.40;;;13.60;68.50;;;;;;4996582;28;20133;-82
2022/05/09 11:08:08;;;;;;;1.67;0.40;;;13.60;69.70;;;;;;4996604;28;20049;-82
2022/05/09 11:10:48;;;;;;;4.35;1.25;;;13.70;68.30;;;;;;4920772;28;20111;-83
2022/05/09 11:13:26;;;;;;;1.88;0.70;;;13.60;68.00;;;;;;4997917;28;20391;-82
2022/05/09 11:16:14;;;;;;;1.85;0.60;;;13.60;70.60;;;;;;4982619;28;20050;-82
2022/05/09 11:18:50;;;;;;;1.08;0.52;;;13.70;68.00;;;;;;4995011;28;20054;-81
2022/05/09 11:21:39;;;;;;;2.65;0.57;;;13.50;69.30;;;;;;4998436;28;20742;-82
2022/05/09 11:24:34;;;;;;;1.58;0.85;;;13.40;68.20;;;;;;5001197;28;20739;-82
2022/05/09 11:27:28;;;;;;;3.65;0.60;;;13.50;69.60;;;;;;4982668;28;20046;-82
2022/05/09 11:30:38;;;;;;;3.28;1.02;;;13.40;67.10;;;;;;4980575;28;20044;-82
2022/05/09 11:33:33;;;;;;;2.78;0.93;;;13.60;68.00;;;;;;4984319;28;20089;-81
2022/05/09 11:36:19;;;;;;;2.60;0.85;;;13.70;66.70;;;;;;4998675;28;20052;-83
2022/05/09 11:39:01;;;;;;;1.35;0.80;;;13.80;64.80;;;;;;4983315;28;20160;-82
2022/05/09 11:41:40;;;;;;;2.75;1.30;;;13.80;65.00;;;;;;4998481;28;20443;-83
2022/05/09 11:44:15;;;;;;;2.35;0.63;;;13.80;63.50;;;;;;4999232;28;20046;-82
2022/05/09 11:46:59;;;;;;;1.83;0.60;;;13.50;63.50;;;;;;4999844;28;20062;-83
2022/05/09 11:49:39;;;;;;;1.42;0.60;;;13.50;63.90;;;;;;4980788;28;20065;-82
2022/05/09 11:52:30;;;;;;;0.70;0.55;;;13.60;64.30;;;;;;4999575;28;20191;-83
2022/05/09 11:55:07;;;;;;;3.65;1.15;;;13.60;62.20;;;;;;4982528;28;20523;-82
2022/05/09 11:57:37;;;;;;;8.35;0.77;;;13.70;63.60;;;;;;4979947;28;20054;-82
2022/05/09 12:00:12;;;;;;;1.17;0.73;;;13.70;62.50;;;;;;4999959;28;20057;-82
2022/05/09 12:02:54;;;;;;;1.20;0.82;;;13.50;62.00;;;;;;5004521;28;20042;-82
2022/05/09 12:05:29;;;;;;;4.00;0.93;;;13.70;62.50;;;;;;4965311;28;20100;-82
2022/05/09 12:07:56;;;;;;;6.85;0.80;;;13.60;61.00;;;;;;5003918;28;20049;-82
2022/05/09 12:10:28;;;;;;;1.35;0.80;;;13.70;63.10;;;;;;4976475;28;20739;-82
2022/05/09 12:13:00;;;;;;;6.82;0.73;;;13.60;60.50;;;;;;5003583;28;20375;-83
2022/05/09 12:15:34;;;;;;;2.13;1.63;;;13.70;60.20;;;;;;4983885;28;20470;-83
2022/05/09 12:18:20;;;;;;;2.63;0.73;;;13.80;61.50;;;;;;5002661;28;20041;-82
2022/05/09 12:20:48;;;;;;;1.38;0.70;;;13.90;61.00;;;;;;4986476;28;20050;-82
2022/05/09 12:23:34;;;;;;;1.75;0.70;;;13.80;60.60;;;;;;5002955;28;20054;-83
2022/05/09 12:26:05;;;;;;;2.97;0.70;;;14.00;60.40;;;;;;5002719;28;20041;-82
2022/05/09 12:28:43;;;;;;;2.08;0.52;;;14.00;58.80;;;;;;4981260;28;20116;-82
2022/05/09 12:31:30;;;;;;;1.63;0.80;;;13.80;59.30;;;;;;4984149;28;20060;-82
2022/05/09 12:33:57;;;;;;;7.22;2.20;;;13.50;59.60;;;;;;4998320;28;20053;-83
2022/05/09 12:36:29;;;;;;;4.60;0.93;;;13.70;60.10;;;;;;4984719;28;20069;-83
2022/05/09 12:39:08;;;;;;;0.82;0.40;;;13.80;59.20;;;;;;5003179;28;20763;-83
2022/05/09 12:41:53;;;;;;;1.15;0.90;;;13.90;61.00;;;;;;4995498;28;20054;-83
2022/05/09 12:44:28;;;;;;;4.90;0.70;;;14.00;58.40;;;;;;5002344;28;20042;-82
2022/05/09 12:47:03;;;;;;;2.88;0.65;;;14.10;59.30;;;;;;4981309;28;20795;-83
2022/05/09 12:49:56;;;;;;;1.83;1.13;;;14.20;59.60;;;;;;4984155;28;20049;-82
2022/05/09 12:52:28;;;;;;;5.25;1.02;;;14.20;57.60;;;;;;4998893;28;20049;-83
2022/05/09 12:57:57;;;;;;;4.13;0.95;;;14.20;57.80;;;;;;4997157;28;20100;-82
2022/05/09 13:00:28;;;;;;;2.50;0.75;;;14.10;57.60;;;;;;4980986;28;20152;-82
2022/05/09 13:03:16;;;;;;;7.30;0.98;;;14.20;58.20;;;;;;5002114;28;20061;-83
2022/05/09 13:05:44;;;;;;;1.50;0.73;;;14.40;59.20;;;;;;5001710;28;20185;-83
2022/05/09 13:08:14;;;;;;;5.55;0.95;;;14.30;57.50;;;;;;4984741;28;20481;-82
2022/05/09 13:10:57;;;;;;;2.28;1.35;;;14.20;58.10;;;;;;4998058;28;20057;-84
2022/05/09 13:13:30;;;;;;;1.75;0.90;;;14.00;57.90;;;;;;4980261;28;20540;-79
2022/05/09 13:15:57;;;;;;;2.63;0.80;;;13.90;58.00;;;;;;5006660;28;20054;-80
2022/05/09 13:18:30;;;;;;;2.20;1.42;;;14.10;60.00;;;;;;4999548;28;20069;-82
2022/05/09 13:21:03;;;;;;;4.35;0.70;;;14.40;59.90;;;;;;5002581;28;20072;-81
2022/05/09 13:23:37;;;;;;;4.18;0.98;;;14.70;58.60;;;;;;4981909;28;20155;-82
2022/05/09 13:26:15;;;;;;;2.00;0.63;;;14.80;60.40;;;;;;4965639;28;20561;-82
2022/05/09 13:28:49;;;;;;;1.10;0.63;;;14.70;59.10;;;;;;5001600;28;20389;-82
2022/05/09 13:31:34;;;;;;;1.20;0.63;;;14.50;59.20;;;;;;4984561;28;20549;-82
2022/05/09 13:34:03;;;;;;;2.53;0.70;;;14.50;58.90;;;;;;4997929;28;20444;-82
2022/05/09 13:36:37;;;;;;;5.38;0.88;;;14.40;58.30;;;;;;5002583;28;20095;-82
2022/05/09 13:39:05;;;;;;;2.90;0.90;;;14.20;58.80;;;;;;5003066;28;20088;-81
2022/05/09 13:41:32;;;;;;;1.67;0.95;;;14.10;56.90;;;;;;5000939;28;20129;-81